Zim Luanda — 9HA2029 — position and weather

sailwx.info

Track history (hours):
 
Tides and Currents Weather Stations Pressure Air Temp Water Temp Dewpoint Dewpoint Depression Visibility Wind Speed Wind Dir Waves Ship Positions

Zim Luanda

Last reported at 2015-Mar-27 12:30 UTC. Time now 2015-Mar-27 15:48 UTC.
Position N 35°58' W 005°37'.

Length 260 m; draft 12.5 m.

Type: Ship (hazmat cat A). MMSI: 249830000.

Date/timePositionNaut miles runAvg speedWind from/ knotsBaromVisibWave heightAir tempDewpointWater temp
2015-Mar-27 12:30N 35°58' W 005°37'1313.6
2015-Mar-27 11:33N 36°01' W 005°21'22415.9
2015-Mar-26 21:30N 37°16' W 000°59'1616.4
2015-Mar-26 20:33N 37°27' W 000°44'1616.5
2015-Mar-26 19:33N 37°38' W 000°30'1716.6
2015-Mar-26 18:33N 37°52' W 000°18'1917.0
2015-Mar-26 17:26N 38°08' W 000°05'7514.5
2015-Mar-26 12:16N 39°23' W 000°13'6 9.1
2015-Mar-26 11:34N 39°27' W 000°19'0 0.1
2015-Mar-26 10:32N 39°27' W 000°19'0 0.0
2015-Mar-26 09:32N 39°27' W 000°19'0 0.0
2015-Mar-26 08:32N 39°27' W 000°19'0 0.0
2015-Mar-26 07:32N 39°27' W 000°19'0 0.0
2015-Mar-26 06:32N 39°27' W 000°19'0 0.0
2015-Mar-26 05:32N 39°27' W 000°19'0 0.0
2015-Mar-26 04:32N 39°27' W 000°19'0 0.0
2015-Mar-26 03:32N 39°27' W 000°19'0 0.0
2015-Mar-26 02:32N 39°27' W 000°19'0 0.0
2015-Mar-26 01:32N 39°27' W 000°19'0 0.0
2015-Mar-26 00:32N 39°27' W 000°19'0 0.0
2015-Mar-25 23:32N 39°27' W 000°19'0 0.0
2015-Mar-25 22:32N 39°27' W 000°19'0 0.0
2015-Mar-25 21:32N 39°27' W 000°19'0 0.0
2015-Mar-25 20:32N 39°27' W 000°19'0 0.0
2015-Mar-25 19:32N 39°27' W 000°19'0 0.0
2015-Mar-25 18:32N 39°27' W 000°19'0 0.0
2015-Mar-25 17:32N 39°27' W 000°19'0 0.0
2015-Mar-25 16:32N 39°27' W 000°19'0 0.0
2015-Mar-25 15:32N 39°27' W 000°19'0 0.0
2015-Mar-25 14:32N 39°27' W 000°19'3 3.4
2015-Mar-25 13:33N 39°24' W 000°16'3 3.3
2015-Mar-25 12:34N 39°24' W 000°12'8 6.8
2015-Mar-25 11:22N 39°25' W 000°01'5 0.5
2015-Mar-25 02:32N 39°21' W 000°05'1 0.2
2015-Mar-24 20:33N 39°22' W 000°04'1 0.4
2015-Mar-24 18:08N 39°21' W 000°04'1 1.9
2015-Mar-24 17:32N 39°22' W 000°04'2 1.7
2015-Mar-24 16:25N 39°24' W 000°02'3 2.9
2015-Mar-24 15:33N 39°22' W 000°05'2 1.6
2015-Mar-24 14:33N 39°21' W 000°06'2 1.7
2015-Mar-24 13:27N 39°22' W 000°05'1 0.6
2015-Mar-24 12:27N 39°23' W 000°05'6 6.7
2015-Mar-24 11:32N 39°24' W 000°13'9 2.8
2015-Mar-24 08:33N 39°28' W 000°04'4112.1
2015-Mar-24 05:09N 39°59' E 000°31'1912.0
2015-Mar-24 03:32N 40°13' E 000°49'1212.0
2015-Mar-24 02:33N 40°22' E 000°60'1212.2
2015-Mar-24 01:33N 40°31' E 001°11'1212.0
2015-Mar-24 00:33N 40°39' E 001°22'1211.7
2015-Mar-23 23:33N 40°47' E 001°33'1211.6
2015-Mar-23 22:33N 40°56' E 001°44'1212.4
2015-Mar-23 21:33N 41°04' E 001°55'1212.5
2015-Mar-23 20:33N 41°13' E 002°07'8 0.7
2015-Mar-23 08:26N 41°21' E 002°10'11 5.8
2015-Mar-23 06:33N 41°10' E 002°08'4 3.6
2015-Mar-23 05:33N 41°09' E 002°04'7 6.7
2015-Mar-23 04:33N 41°06' E 001°56'1 1.2
2015-Mar-23 03:33N 41°07' E 001°57'2 2.5
2015-Mar-23 02:33N 41°07' E 002°00'2 2.1
2015-Mar-23 01:33N 41°09' E 002°03'5 4.8
2015-Mar-23 00:33N 41°06' E 001°57'1 0.7
2015-Mar-22 23:29N 41°06' E 001°56'2 2.5
2015-Mar-22 22:33N 41°06' E 001°59'3 2.5
2015-Mar-22 21:27N 41°07' E 002°03'2 2.0
2015-Mar-22 20:15N 41°08' E 002°06'3 4.7
2015-Mar-22 19:33N 41°08' E 002°02'4 3.9
2015-Mar-22 18:33N 41°10' E 001°57'3 2.6
2015-Mar-22 17:33N 41°10' E 002°00'3 2.6
2015-Mar-22 16:33N 41°10' E 002°04'3 2.3
2015-Mar-22 15:29N 41°10' E 002°00'4 3.9
2015-Mar-22 14:27N 41°10' E 001°55'2 1.9
2015-Mar-22 13:26N 41°10' E 001°57'3 2.2
2015-Mar-22 12:05N 41°10' E 002°01'2 2.3
2015-Mar-22 11:12N 41°10' E 002°04'2 1.2
2015-Mar-22 09:33N 41°12' E 002°05'2 1.3
2015-Mar-22 08:10N 41°12' E 002°07'1 1.6
2015-Mar-22 07:30N 41°13' E 002°09'11 8.7
2015-Mar-22 06:11N 41°09' E 001°54'2010.8
2015-Mar-22 04:19N 41°04' E 001°28'11 1.0
2015-Mar-21 17:18N 41°03' E 001°14'1011.6
2015-Mar-21 16:29N 41°04' E 001°27'1415.2
2015-Mar-21 15:33N 41°07' E 001°45'1515.4
2015-Mar-21 14:33N 41°09' E 002°06'1515.3
2015-Mar-21 13:33N 41°15' E 002°24'1515.1
2015-Mar-21 12:34N 41°22' E 002°42'1815.5
2015-Mar-21 11:23N 41°30' E 003°04'1314.8
2015-Mar-21 10:32N 41°36' E 003°18'1916.1
2015-Mar-21 09:23N 41°45' E 003°41'2015.4
2015-Mar-21 08:05N 41°54' E 004°04'1415.9
2015-Mar-21 07:13N 42°01' E 004°21'10815.0
2015-Mar-21 00:03N 42°52' E 006°29'815.9
2015-Mar-20 23:33N 42°56' E 006°38'1615.6
2015-Mar-20 22:33N 43°05' E 006°55'1515.4
2015-Mar-20 21:33N 43°15' E 007°12'1615.7
2015-Mar-20 20:33N 43°24' E 007°29'1615.6
2015-Mar-20 19:33N 43°34' E 007°47'1615.9
2015-Mar-20 18:34N 43°43' E 008°04'1615.7
2015-Mar-20 17:34N 43°53' E 008°21'1615.9
2015-Mar-20 16:34N 44°04' E 008°36'1615.9
2015-Mar-20 15:33N 44°16' E 008°52'9 8.5
2015-Mar-20 14:33N 44°24' E 008°54'0 0.1
2015-Mar-20 13:31N 44°24' E 008°54'0 0.0
2015-Mar-20 12:31N 44°24' E 008°54'0 0.0
2015-Mar-20 11:28N 44°24' E 008°54'0 0.0
2015-Mar-20 10:31N 44°24' E 008°54'0 0.0
2015-Mar-20 09:31N 44°24' E 008°54'0 0.0
2015-Mar-20 08:31N 44°24' E 008°54'0 0.0
2015-Mar-20 07:31N 44°24' E 008°54'0 0.0
2015-Mar-20 06:31N 44°24' E 008°54'0 0.0
2015-Mar-20 05:25N 44°24' E 008°54'0 0.0
2015-Mar-20 04:28N 44°24' E 008°54'0 0.0
2015-Mar-20 03:31N 44°24' E 008°54'0 0.0
2015-Mar-20 02:28N 44°24' E 008°54'0 0.0
2015-Mar-20 01:31N 44°24' E 008°54'0 0.0
2015-Mar-20 00:31N 44°24' E 008°54'0 0.0
2015-Mar-19 23:28N 44°24' E 008°54'0 0.0
2015-Mar-19 22:31N 44°24' E 008°54'0 0.0
2015-Mar-19 21:31N 44°24' E 008°54'0 0.0
2015-Mar-19 20:31N 44°24' E 008°54'0 0.0
2015-Mar-19 19:31N 44°24' E 008°54'0 0.0
2015-Mar-19 18:31N 44°24' E 008°54'0 0.0
2015-Mar-19 17:31N 44°24' E 008°54'0 0.0
2015-Mar-19 16:31N 44°24' E 008°54'0 0.5
2015-Mar-19 15:33N 44°24' E 008°54'4 3.8
2015-Mar-19 14:33N 44°21' E 008°58'1312.6
2015-Mar-19 13:33N 44°11' E 009°09'1717.4
2015-Mar-19 12:34N 43°58' E 009°24'1817.9
2015-Mar-19 11:33N 43°44' E 009°39'1817.8
2015-Mar-19 10:34N 43°32' E 009°57'1514.6
2015-Mar-19 09:33N 43°32' E 010°17'2 2.2
2015-Mar-19 08:32N 43°35' E 010°18'0 0.0
2015-Mar-19 07:32N 43°35' E 010°18'0 0.0
2015-Mar-19 06:32N 43°35' E 010°18'0 0.0
2015-Mar-19 05:32N 43°35' E 010°18'0 0.0
2015-Mar-19 04:32N 43°35' E 010°18'0 0.0
2015-Mar-19 03:32N 43°35' E 010°18'0 0.0
2015-Mar-19 02:32N 43°35' E 010°18'0 0.0
2015-Mar-19 01:31N 43°35' E 010°18'0 0.0
2015-Mar-19 00:31N 43°35' E 010°18'0 0.0
2015-Mar-18 23:31N 43°35' E 010°18'0 0.0
2015-Mar-18 22:31N 43°35' E 010°18'0 0.0
2015-Mar-18 21:32N 43°35' E 010°18'0 0.0
2015-Mar-18 20:31N 43°35' E 010°18'0 0.0
2015-Mar-18 19:31N 43°35' E 010°18'0 0.0
2015-Mar-18 18:31N 43°35' E 010°18'0 0.0
2015-Mar-18 17:31N 43°35' E 010°18'0 0.0
2015-Mar-18 16:31N 43°35' E 010°18'0 0.0
2015-Mar-18 15:31N 43°35' E 010°18'0 0.0
2015-Mar-18 14:31N 43°35' E 010°18'0 0.0
2015-Mar-18 13:31N 43°35' E 010°18'2 2.1
2015-Mar-18 12:33N 43°33' E 010°17'5 5.3
2015-Mar-18 11:34N 43°28' E 010°13'1515.4
2015-Mar-18 10:33N 43°13' E 010°09'1616.3
2015-Mar-18 09:33N 42°57' E 010°05'1616.0
2015-Mar-18 08:33N 42°41' E 010°07'  
Track history (hours):
 
Tides and Currents Weather Stations Pressure Air Temp Water Temp Dewpoint Dewpoint Depression Visibility Wind Speed Wind Dir Waves Ship Positions

Zim Luanda

Last reported at 2015-Mar-27 12:30 UTC. Time now 2015-Mar-27 15:48 UTC.
Position N 35°58' W 005°37'.

Length 260 m; draft 12.5 m.

Type: Ship (hazmat cat A). MMSI: 249830000.

Date/timePositionNaut miles runAvg speedWind from/ knotsBaromVisibWave heightAir tempDewpointWater temp
2015-Mar-27 12:30N 35°58' W 005°37'1313.6
2015-Mar-27 11:33N 36°01' W 005°21'22415.9
2015-Mar-26 21:30N 37°16' W 000°59'1616.4
2015-Mar-26 20:33N 37°27' W 000°44'1616.5
2015-Mar-26 19:33N 37°38' W 000°30'1716.6
2015-Mar-26 18:33N 37°52' W 000°18'1917.0
2015-Mar-26 17:26N 38°08' W 000°05'7514.5
2015-Mar-26 12:16N 39°23' W 000°13'6 9.1
2015-Mar-26 11:34N 39°27' W 000°19'0 0.1
2015-Mar-26 10:32N 39°27' W 000°19'0 0.0
2015-Mar-26 09:32N 39°27' W 000°19'0 0.0
2015-Mar-26 08:32N 39°27' W 000°19'0 0.0
2015-Mar-26 07:32N 39°27' W 000°19'0 0.0
2015-Mar-26 06:32N 39°27' W 000°19'0 0.0
2015-Mar-26 05:32N 39°27' W 000°19'0 0.0
2015-Mar-26 04:32N 39°27' W 000°19'0 0.0
2015-Mar-26 03:32N 39°27' W 000°19'0 0.0
2015-Mar-26 02:32N 39°27' W 000°19'0 0.0
2015-Mar-26 01:32N 39°27' W 000°19'0 0.0
2015-Mar-26 00:32N 39°27' W 000°19'0 0.0
2015-Mar-25 23:32N 39°27' W 000°19'0 0.0
2015-Mar-25 22:32N 39°27' W 000°19'0 0.0
2015-Mar-25 21:32N 39°27' W 000°19'0 0.0
2015-Mar-25 20:32N 39°27' W 000°19'0 0.0
2015-Mar-25 19:32N 39°27' W 000°19'0 0.0
2015-Mar-25 18:32N 39°27' W 000°19'0 0.0
2015-Mar-25 17:32N 39°27' W 000°19'0 0.0
2015-Mar-25 16:32N 39°27' W 000°19'0 0.0
2015-Mar-25 15:32N 39°27' W 000°19'0 0.0
2015-Mar-25 14:32N 39°27' W 000°19'3 3.4
2015-Mar-25 13:33N 39°24' W 000°16'3 3.3
2015-Mar-25 12:34N 39°24' W 000°12'8 6.8
2015-Mar-25 11:22N 39°25' W 000°01'5 0.5
2015-Mar-25 02:32N 39°21' W 000°05'1 0.2
2015-Mar-24 20:33N 39°22' W 000°04'1 0.4
2015-Mar-24 18:08N 39°21' W 000°04'1 1.9
2015-Mar-24 17:32N 39°22' W 000°04'2 1.7
2015-Mar-24 16:25N 39°24' W 000°02'3 2.9
2015-Mar-24 15:33N 39°22' W 000°05'2 1.6
2015-Mar-24 14:33N 39°21' W 000°06'2 1.7
2015-Mar-24 13:27N 39°22' W 000°05'1 0.6
2015-Mar-24 12:27N 39°23' W 000°05'6 6.7
2015-Mar-24 11:32N 39°24' W 000°13'9 2.8
2015-Mar-24 08:33N 39°28' W 000°04'4112.1
2015-Mar-24 05:09N 39°59' E 000°31'1912.0
2015-Mar-24 03:32N 40°13' E 000°49'1212.0
2015-Mar-24 02:33N 40°22' E 000°60'1212.2
2015-Mar-24 01:33N 40°31' E 001°11'1212.0
2015-Mar-24 00:33N 40°39' E 001°22'1211.7
2015-Mar-23 23:33N 40°47' E 001°33'1211.6
2015-Mar-23 22:33N 40°56' E 001°44'1212.4
2015-Mar-23 21:33N 41°04' E 001°55'1212.5
2015-Mar-23 20:33N 41°13' E 002°07'8 0.7
2015-Mar-23 08:26N 41°21' E 002°10'11 5.8
2015-Mar-23 06:33N 41°10' E 002°08'4 3.6
2015-Mar-23 05:33N 41°09' E 002°04'7 6.7
2015-Mar-23 04:33N 41°06' E 001°56'1 1.2
2015-Mar-23 03:33N 41°07' E 001°57'2 2.5
2015-Mar-23 02:33N 41°07' E 002°00'2 2.1
2015-Mar-23 01:33N 41°09' E 002°03'5 4.8
2015-Mar-23 00:33N 41°06' E 001°57'1 0.7
2015-Mar-22 23:29N 41°06' E 001°56'2 2.5
2015-Mar-22 22:33N 41°06' E 001°59'3 2.5
2015-Mar-22 21:27N 41°07' E 002°03'2 2.0
2015-Mar-22 20:15N 41°08' E 002°06'3 4.7
2015-Mar-22 19:33N 41°08' E 002°02'4 3.9
2015-Mar-22 18:33N 41°10' E 001°57'3 2.6
2015-Mar-22 17:33N 41°10' E 002°00'3 2.6
2015-Mar-22 16:33N 41°10' E 002°04'3 2.3
2015-Mar-22 15:29N 41°10' E 002°00'4 3.9
2015-Mar-22 14:27N 41°10' E 001°55'2 1.9
2015-Mar-22 13:26N 41°10' E 001°57'3 2.2
2015-Mar-22 12:05N 41°10' E 002°01'2 2.3
2015-Mar-22 11:12N 41°10' E 002°04'2 1.2
2015-Mar-22 09:33N 41°12' E 002°05'2 1.3
2015-Mar-22 08:10N 41°12' E 002°07'1 1.6
2015-Mar-22 07:30N 41°13' E 002°09'11 8.7
2015-Mar-22 06:11N 41°09' E 001°54'2010.8
2015-Mar-22 04:19N 41°04' E 001°28'11 1.0
2015-Mar-21 17:18N 41°03' E 001°14'1011.6
2015-Mar-21 16:29N 41°04' E 001°27'1415.2
2015-Mar-21 15:33N 41°07' E 001°45'1515.4
2015-Mar-21 14:33N 41°09' E 002°06'1515.3
2015-Mar-21 13:33N 41°15' E 002°24'1515.1
2015-Mar-21 12:34N 41°22' E 002°42'1815.5
2015-Mar-21 11:23N 41°30' E 003°04'1314.8
2015-Mar-21 10:32N 41°36' E 003°18'1916.1
2015-Mar-21 09:23N 41°45' E 003°41'2015.4
2015-Mar-21 08:05N 41°54' E 004°04'1415.9
2015-Mar-21 07:13N 42°01' E 004°21'10815.0
2015-Mar-21 00:03N 42°52' E 006°29'815.9
2015-Mar-20 23:33N 42°56' E 006°38'1615.6
2015-Mar-20 22:33N 43°05' E 006°55'1515.4
2015-Mar-20 21:33N 43°15' E 007°12'1615.7
2015-Mar-20 20:33N 43°24' E 007°29'1615.6
2015-Mar-20 19:33N 43°34' E 007°47'1615.9
2015-Mar-20 18:34N 43°43' E 008°04'1615.7
2015-Mar-20 17:34N 43°53' E 008°21'1615.9
2015-Mar-20 16:34N 44°04' E 008°36'1615.9
2015-Mar-20 15:33N 44°16' E 008°52'9 8.5
2015-Mar-20 14:33N 44°24' E 008°54'0 0.1
2015-Mar-20 13:31N 44°24' E 008°54'0 0.0
2015-Mar-20 12:31N 44°24' E 008°54'0 0.0
2015-Mar-20 11:28N 44°24' E 008°54'0 0.0
2015-Mar-20 10:31N 44°24' E 008°54'0 0.0
2015-Mar-20 09:31N 44°24' E 008°54'0 0.0
2015-Mar-20 08:31N 44°24' E 008°54'0 0.0
2015-Mar-20 07:31N 44°24' E 008°54'0 0.0
2015-Mar-20 06:31N 44°24' E 008°54'0 0.0
2015-Mar-20 05:25N 44°24' E 008°54'0 0.0
2015-Mar-20 04:28N 44°24' E 008°54'0 0.0
2015-Mar-20 03:31N 44°24' E 008°54'0 0.0
2015-Mar-20 02:28N 44°24' E 008°54'0 0.0
2015-Mar-20 01:31N 44°24' E 008°54'0 0.0
2015-Mar-20 00:31N 44°24' E 008°54'0 0.0
2015-Mar-19 23:28N 44°24' E 008°54'0 0.0
2015-Mar-19 22:31N 44°24' E 008°54'0 0.0
2015-Mar-19 21:31N 44°24' E 008°54'0 0.0
2015-Mar-19 20:31N 44°24' E 008°54'0 0.0
2015-Mar-19 19:31N 44°24' E 008°54'0 0.0
2015-Mar-19 18:31N 44°24' E 008°54'0 0.0
2015-Mar-19 17:31N 44°24' E 008°54'0 0.0
2015-Mar-19 16:31N 44°24' E 008°54'0 0.5
2015-Mar-19 15:33N 44°24' E 008°54'4 3.8
2015-Mar-19 14:33N 44°21' E 008°58'1312.6
2015-Mar-19 13:33N 44°11' E 009°09'1717.4
2015-Mar-19 12:34N 43°58' E 009°24'1817.9
2015-Mar-19 11:33N 43°44' E 009°39'1817.8
2015-Mar-19 10:34N 43°32' E 009°57'1514.6
2015-Mar-19 09:33N 43°32' E 010°17'2 2.2
2015-Mar-19 08:32N 43°35' E 010°18'0 0.0
2015-Mar-19 07:32N 43°35' E 010°18'0 0.0
2015-Mar-19 06:32N 43°35' E 010°18'0 0.0
2015-Mar-19 05:32N 43°35' E 010°18'0 0.0
2015-Mar-19 04:32N 43°35' E 010°18'0 0.0
2015-Mar-19 03:32N 43°35' E 010°18'0 0.0
2015-Mar-19 02:32N 43°35' E 010°18'0 0.0
2015-Mar-19 01:31N 43°35' E 010°18'0 0.0
2015-Mar-19 00:31N 43°35' E 010°18'0 0.0
2015-Mar-18 23:31N 43°35' E 010°18'0 0.0
2015-Mar-18 22:31N 43°35' E 010°18'0 0.0
2015-Mar-18 21:32N 43°35' E 010°18'0 0.0
2015-Mar-18 20:31N 43°35' E 010°18'0 0.0
2015-Mar-18 19:31N 43°35' E 010°18'0 0.0
2015-Mar-18 18:31N 43°35' E 010°18'0 0.0
2015-Mar-18 17:31N 43°35' E 010°18'0 0.0
2015-Mar-18 16:31N 43°35' E 010°18'0 0.0
2015-Mar-18 15:31N 43°35' E 010°18'0 0.0
2015-Mar-18 14:31N 43°35' E 010°18'0 0.0
2015-Mar-18 13:31N 43°35' E 010°18'2 2.1
2015-Mar-18 12:33N 43°33' E 010°17'5 5.3
2015-Mar-18 11:34N 43°28' E 010°13'1515.4
2015-Mar-18 10:33N 43°13' E 010°09'1616.3
2015-Mar-18 09:33N 42°57' E 010°05'1616.0
2015-Mar-18 08:33N 42°41' E 010°07'  

Dump ship's entire track history